Time;durP1;ratioP1;P1;durP2;ratioP2;P2;SDS_P1;SDS_P2;PMS_P1;PMS_P2;Temp;Humidity;BMP_temperature;BMP_pressure;BME280_temperature;BME280_humidity;BME280_pressure;Samples;Min_cycle;Max_cycle;Signal;HPM_P1;HPM_P2
2022/01/28 00:02:43;;;;;;;1.80;1.20;;;;;;;25.90;28.97;97704.13;4904283;28;20035;-57
2022/01/28 00:05:15;;;;;;;3.83;1.05;;;;;;;25.89;29.19;97711.16;4905147;29;20036;-59
2022/01/28 00:07:41;;;;;;;2.90;1.65;;;;;;;25.89;29.11;97716.41;4905330;28;20944;-60
2022/01/28 00:10:06;;;;;;;3.50;1.30;;;;;;;25.89;28.96;97731.31;4900682;28;20035;-59
2022/01/28 00:12:33;;;;;;;2.30;1.38;;;;;;;25.90;29.07;97733.03;4899417;28;20023;-60
2022/01/28 00:15:07;;;;;;;2.42;1.08;;;;;;;25.90;29.16;97733.03;4899926;28;20138;-59
2022/01/28 00:39:07;;;;;;;2.55;1.17;;;;;;;25.86;29.10;97748.06;4923642;28;20031;-59
2022/01/28 00:41:32;;;;;;;2.20;1.13;;;;;;;25.87;29.07;97754.13;4938560;28;20046;-60
2022/01/28 00:43:57;;;;;;;3.15;1.33;;;;;;;25.85;28.97;97755.97;4923314;29;20038;-59
2022/01/28 00:46:23;;;;;;;1.65;0.98;;;;;;;25.84;28.92;97765.63;4922615;29;20062;-59
2022/01/28 00:48:48;;;;;;;3.28;1.25;;;;;;;25.86;28.95;97768.19;4920207;29;21236;-59
2022/01/28 00:51:14;;;;;;;3.08;1.08;;;;;;;25.86;28.89;97757.69;4923140;28;20090;-60
2022/01/28 00:53:39;;;;;;;3.08;1.13;;;;;;;25.86;28.97;97757.69;4920880;28;20027;-58
2022/01/28 00:56:05;;;;;;;2.40;1.30;;;;;;;25.85;29.11;97767.31;4918866;29;20078;-59
2022/01/28 00:58:30;;;;;;;1.02;0.80;;;;;;;25.85;29.00;97767.31;4921603;28;20050;-57
2022/01/28 01:00:55;;;;;;;2.67;1.05;;;;;;;25.87;29.03;97769.91;4920072;28;20038;-59
2022/01/28 01:03:21;;;;;;;1.88;0.98;;;;;;;25.87;29.03;97769.91;4920397;29;20039;-59
2022/01/28 01:05:46;;;;;;;1.88;1.00;;;;;;;25.85;28.93;97771.75;4920682;28;20046;-59
2022/01/28 01:08:12;;;;;;;1.92;1.10;;;;;;;25.86;28.93;97784.81;4909857;29;20098;-60
2022/01/28 01:10:37;;;;;;;1.00;0.90;;;;;;;25.85;28.81;97782.25;4921929;29;20039;-60
2022/01/28 01:13:03;;;;;;;3.10;1.10;;;;;;;25.84;29.02;97776.13;4921302;28;20031;-60
2022/01/28 01:15:34;;;;;;;2.17;1.05;;;;;;;25.85;28.88;97790.13;4921875;29;20046;-60
2022/01/28 01:23:08;;;;;;;2.83;1.25;;;;;;;25.85;28.84;97782.25;4924081;28;20027;-57
2022/01/28 01:25:43;;;;;;;2.00;0.98;;;;;;;25.85;28.86;97792.75;4923619;29;20093;-60
2022/01/28 01:28:11;;;;;;;2.17;0.75;;;;;;;25.81;28.94;97778.84;4921613;29;20047;-60
2022/01/28 01:30:40;;;;;;;1.95;1.10;;;;;;;25.82;28.83;97786.69;4921841;28;21153;-58
2022/01/28 01:33:06;;;;;;;2.05;0.95;;;;;;;25.82;28.85;97789.31;4921021;29;20031;-59
2022/01/28 01:35:32;;;;;;;2.97;0.82;;;;;;;25.82;28.94;97794.56;4920635;28;20058;-59
2022/01/28 01:37:58;;;;;;;1.80;1.10;;;;;;;25.82;28.84;97789.31;4926209;29;20039;-57
2022/01/28 01:40:29;;;;;;;2.50;0.95;;;;;;;25.82;28.83;97786.69;4921629;29;20031;-60
2022/01/28 01:43:07;;;;;;;2.28;1.10;;;;;;;25.82;28.79;97784.06;4918873;29;20130;-59
2022/01/28 01:53:41;;;;;;;3.42;0.93;;;;;;;25.80;28.84;97791.16;4932580;28;20045;-59
2022/01/28 01:56:06;;;;;;;1.65;0.80;;;;;;;25.81;28.87;97797.22;4921875;29;20027;-60
2022/01/28 01:58:32;;;;;;;1.60;0.98;;;;;;;25.79;28.81;97794.69;4907415;29;20044;-59
2022/01/28 02:00:58;;;;;;;1.80;0.70;;;;;;;25.79;28.76;97807.81;4921074;28;20139;-59
2022/01/28 02:03:24;;;;;;;2.05;1.00;;;;;;;25.79;28.84;97812.19;4921201;29;20249;-60
2022/01/28 02:05:50;;;;;;;2.80;0.90;;;;;;;25.79;28.93;97802.56;4921253;29;20035;-59
2022/01/28 02:08:15;;;;;;;2.50;0.90;;;;;;;25.79;28.76;97807.81;4922649;28;20996;-57
2022/01/28 02:10:40;;;;;;;1.48;0.85;;;;;;;25.78;28.85;97813.97;4936476;28;20030;-60
2022/01/28 02:13:06;;;;;;;1.67;0.98;;;;;;;25.78;28.82;97813.97;4919316;28;20376;-57
2022/01/28 02:15:31;;;;;;;2.17;0.73;;;;;;;25.77;28.69;97812.25;4922052;29;20028;-60
2022/01/28 02:17:58;;;;;;;1.73;0.93;;;;;;;25.77;28.75;97807.00;4916136;28;20027;-57
2022/01/28 02:20:36;;;;;;;2.08;0.93;;;;;;;25.74;28.81;97807.09;4921254;28;20023;-58
2022/01/28 02:23:02;;;;;;;1.88;0.77;;;;;;;25.77;28.74;97814.88;4920016;29;20051;-60
2022/01/28 02:25:30;;;;;;;3.42;0.80;;;;;;;25.78;28.75;97815.75;4919439;28;20107;-59
2022/01/28 02:27:58;;;;;;;2.00;0.90;;;;;;;25.78;28.68;97813.97;4921362;28;21428;-57
2022/01/28 02:30:23;;;;;;;1.30;0.80;;;;;;;25.77;28.76;97817.50;4920271;28;20047;-59
2022/01/28 02:32:50;;;;;;;1.48;1.00;;;;;;;25.76;28.73;97823.69;4935134;28;20126;-60
2022/01/28 02:35:16;;;;;;;1.42;0.60;;;;;;;25.77;28.83;97828.00;4919382;28;20541;-59
2022/01/28 02:37:41;;;;;;;3.03;1.30;;;;;;;25.76;28.79;97821.06;4921272;29;20045;-60
2022/01/28 02:40:07;;;;;;;1.67;0.82;;;;;;;25.77;28.65;97829.75;4920496;28;20039;-59
2022/01/28 02:45:37;;;;;;;0.68;0.57;;;;;;;25.75;28.72;97821.97;4910973;29;20049;-59
2022/01/28 02:48:07;;;;;;;1.65;0.90;;;;;;;25.75;28.74;97824.59;4922161;29;20035;-59
2022/01/28 02:50:50;;;;;;;3.20;0.88;;;;;;;25.74;28.66;97822.88;4919950;28;20046;-59
2022/01/28 02:53:25;;;;;;;1.17;0.70;;;;;;;25.75;28.56;97826.34;4925055;29;20634;-61
2022/01/28 02:55:57;;;;;;;1.40;0.75;;;;;;;25.74;28.55;97828.09;4920857;29;20038;-59
2022/01/28 02:58:25;;;;;;;0.90;0.60;;;;;;;25.73;28.44;97842.16;4919438;29;20060;-61
2022/01/28 03:00:51;;;;;;;1.17;0.70;;;;;;;25.73;28.68;97842.16;4922027;28;20057;-59
2022/01/28 03:03:22;;;;;;;0.85;0.60;;;;;;;25.73;28.67;97842.16;4921471;29;20039;-59
2022/01/28 03:05:48;;;;;;;1.75;0.93;;;;;;;25.73;28.56;97847.41;4922178;29;20027;-59
2022/01/28 03:08:14;;;;;;;1.50;0.50;;;;;;;25.73;28.74;97836.06;4929177;29;20122;-60
2022/01/28 03:10:51;;;;;;;2.75;0.80;;;;;;;25.73;28.93;97842.16;4921952;28;20023;-59
2022/01/28 03:13:30;;;;;;;2.88;0.82;;;;;;;25.72;28.81;97837.81;4918442;29;20039;-61
2022/01/28 03:16:06;;;;;;;1.42;0.60;;;;;;;25.70;28.88;97837.88;4921457;29;20028;-57
2022/01/28 03:18:41;;;;;;;1.17;0.70;;;;;;;25.72;28.56;97840.44;4934478;28;20027;-59
2022/01/28 03:21:19;;;;;;;1.17;0.63;;;;;;;25.72;28.93;97835.19;4919640;28;20027;-60
2022/01/28 03:23:44;;;;;;;1.20;0.65;;;;;;;25.71;28.44;97838.75;4920517;28;20098;-60
2022/01/28 03:26:10;;;;;;;0.63;0.50;;;;;;;25.70;28.61;97840.50;4922901;29;20035;-59
2022/01/28 03:28:35;;;;;;;0.70;0.70;;;;;;;25.70;28.50;97837.88;4920283;29;20074;-59
2022/01/28 03:31:01;;;;;;;0.70;0.57;;;;;;;25.69;28.76;97841.41;4919365;28;20046;-56
2022/01/28 03:33:26;;;;;;;1.10;0.65;;;;;;;25.70;28.95;97845.75;4919519;29;20035;-59
2022/01/28 03:35:51;;;;;;;0.80;0.60;;;;;;;25.70;28.90;97847.50;4921445;29;20713;-58
2022/01/28 03:38:17;;;;;;;0.93;0.55;;;;;;;25.69;28.79;97857.19;4920789;29;20506;-59
2022/01/28 03:40:43;;;;;;;0.77;0.57;;;;;;;25.67;28.64;97858.97;4920380;28;20038;-62
2022/01/28 03:43:08;;;;;;;0.85;0.57;;;;;;;25.70;28.89;97863.25;4919550;29;20035;-57
2022/01/28 03:45:34;;;;;;;0.73;0.57;;;;;;;25.68;28.75;97863.34;4920099;29;20611;-59
2022/01/28 03:47:59;;;;;;;0.50;0.50;;;;;;;25.66;28.63;97859.91;4919244;29;20066;-59
2022/01/28 03:50:24;;;;;;;0.95;0.60;;;;;;;25.67;28.51;97873.91;4919333;28;20032;-60
2022/01/28 03:52:50;;;;;;;3.25;1.45;;;;;;;25.67;28.17;97879.16;4920798;28;20413;-57
2022/01/28 03:55:16;;;;;;;1.33;0.90;;;;;;;25.65;28.24;97880.94;4919464;29;20043;-59
2022/01/28 03:57:41;;;;;;;2.60;0.98;;;;;;;25.64;28.43;97889.75;4921728;29;20035;-59
2022/01/28 04:00:07;;;;;;;1.02;0.60;;;;;;;25.63;28.31;97894.13;4910725;29;20039;-59
2022/01/28 04:02:36;;;;;;;0.75;0.65;;;;;;;25.63;28.33;97890.66;4909695;29;20486;-59
2022/01/28 04:13:22;;;;;;;2.55;0.55;;;;;;;25.62;28.28;97904.69;4915150;28;20238;-59
2022/01/28 04:15:54;;;;;;;1.23;0.30;;;;;;;25.63;28.65;97903.78;4923157;28;20039;-58
2022/01/28 04:18:19;;;;;;;0.63;0.60;;;;;;;25.62;28.62;97902.06;4921758;28;20038;-59
2022/01/28 04:20:44;;;;;;;3.92;0.52;;;;;;;25.62;28.47;97904.69;4922057;28;20032;-59
2022/01/28 04:23:10;;;;;;;3.38;0.80;;;;;;;25.61;28.50;97908.22;4922422;29;20708;-59
2022/01/28 04:25:35;;;;;;;3.83;0.60;;;;;;;25.59;28.62;97907.44;4920334;28;20035;-59
2022/01/28 04:28:01;;;;;;;3.33;0.63;;;;;;;25.62;28.49;97902.06;4924630;29;20035;-59
2022/01/28 04:30:26;;;;;;;1.55;1.00;;;;;;;25.60;28.25;97903.88;4934655;28;20043;-59
2022/01/28 04:32:51;;;;;;;2.45;0.47;;;;;;;25.61;28.51;97905.59;4923818;29;20046;-60
2022/01/28 04:35:17;;;;;;;2.10;0.50;;;;;;;25.61;28.65;97905.59;4921071;28;20038;-58
2022/01/28 04:37:55;;;;;;;0.70;0.50;;;;;;;25.60;28.73;97906.50;4925458;29;20039;-59
2022/01/28 04:40:27;;;;;;;0.75;0.50;;;;;;;25.60;28.79;97914.38;4922662;28;21416;-59
2022/01/28 04:43:08;;;;;;;1.23;0.50;;;;;;;25.60;28.71;97909.13;4922662;29;20035;-60
2022/01/28 04:56:45;;;;;;;1.02;0.60;;;;;;;25.57;28.86;97937.22;4929930;29;20049;-59
2022/01/28 05:03:53;;;;;;;1.85;0.60;;;;;;;25.58;28.57;97959.06;4920801;29;20121;-59
2022/01/28 05:12:09;;;;;;;1.10;0.60;;;;;;;25.56;28.36;97959.09;4921795;29;20095;-59
2022/01/28 05:15:04;;;;;;;1.70;0.77;;;;;;;25.56;28.74;97950.38;4921683;29;20103;-59
2022/01/28 05:28:04;;;;;;;1.25;0.55;;;;;;;25.54;28.75;97958.28;4923172;29;20070;-59
2022/01/28 05:30:29;;;;;;;0.98;0.60;;;;;;;25.53;28.77;97959.19;4922717;28;20461;-58
2022/01/28 05:32:55;;;;;;;2.72;0.52;;;;;;;25.55;28.26;97951.28;4922211;29;20793;-59
2022/01/28 05:35:20;;;;;;;0.50;0.47;;;;;;;25.54;28.50;97954.78;4919753;28;22171;-58
2022/01/28 05:37:45;;;;;;;1.10;0.50;;;;;;;25.53;28.34;97961.81;4933783;28;20038;-59
2022/01/28 05:40:11;;;;;;;0.90;0.40;;;;;;;25.53;28.19;97959.19;4923438;28;20044;-59
2022/01/28 05:42:36;;;;;;;0.88;0.52;;;;;;;25.53;28.19;97964.44;4934922;28;20038;-60
2022/01/28 05:45:02;;;;;;;1.73;0.50;;;;;;;25.54;28.54;97967.91;4917146;29;20541;-59
2022/01/28 05:47:28;;;;;;;0.82;0.50;;;;;;;25.53;28.15;97969.69;4924079;28;20102;-59
2022/01/28 05:49:53;;;;;;;0.82;0.50;;;;;;;25.53;28.80;97974.06;4918929;29;20031;-59
2022/01/28 05:52:19;;;;;;;0.40;0.40;;;;;;;25.52;28.63;97975.81;4918932;29;20034;-60
2022/01/28 05:54:44;;;;;;;0.50;0.40;;;;;;;25.52;28.44;97983.69;4917617;29;20035;-59
2022/01/28 05:57:09;;;;;;;0.88;0.40;;;;;;;25.53;28.75;97988.06;4916965;29;20035;-58
2022/01/28 05:59:35;;;;;;;0.32;0.30;;;;;;;25.53;28.33;97985.44;4919587;29;20042;-59
2022/01/28 06:02:00;;;;;;;1.70;0.60;;;;;;;25.53;28.60;97988.06;4918246;28;20032;-58
2022/01/28 06:04:26;;;;;;;1.48;0.60;;;;;;;25.53;28.26;97993.31;4916940;29;20035;-59
2022/01/28 06:06:51;;;;;;;0.30;0.30;;;;;;;25.53;28.39;98001.19;4920379;29;20027;-58
2022/01/28 06:09:17;;;;;;;1.75;0.52;;;;;;;25.53;28.58;98005.56;4919634;29;20501;-58
2022/01/28 06:11:45;;;;;;;0.93;0.50;;;;;;;25.53;28.55;98011.69;4919132;28;20044;-57
2022/01/28 06:14:11;;;;;;;0.77;0.47;;;;;;;25.54;28.56;98021.28;4919020;28;20111;-58
2022/01/28 06:16:36;;;;;;;0.60;0.40;;;;;;;25.53;28.71;98019.56;4918491;28;20056;-57
2022/01/28 06:19:02;;;;;;;1.40;0.40;;;;;;;25.53;28.41;98030.06;4917932;29;20521;-59
2022/01/28 06:21:27;;;;;;;1.45;0.60;;;;;;;25.54;28.34;98041.41;4913641;28;20027;-56
2022/01/28 06:23:52;;;;;;;0.88;0.50;;;;;;;25.53;28.66;98051.06;4916639;29;20558;-59
2022/01/28 06:26:18;;;;;;;0.68;0.45;;;;;;;25.53;28.34;98058.94;4919351;29;20025;-59
2022/01/28 06:28:44;;;;;;;0.80;0.45;;;;;;;25.54;28.77;98058.00;4919405;28;20556;-60
2022/01/28 06:31:10;;;;;;;2.67;0.55;;;;;;;25.54;28.82;98059.75;4919968;28;20043;-58
2022/01/28 06:33:36;;;;;;;0.65;0.65;;;;;;;25.54;28.45;98058.00;4921358;29;20044;-56
2022/01/28 06:36:02;;;;;;;0.30;0.30;;;;;;;25.55;28.29;98061.50;4919300;29;20063;-58
2022/01/28 06:38:27;;;;;;;0.80;0.50;;;;;;;25.55;28.40;98080.72;4922067;29;20093;-57
2022/01/28 06:40:53;;;;;;;3.63;0.40;;;;;;;25.55;28.55;98093.84;4921750;28;20031;-59
2022/01/28 06:43:18;;;;;;;0.65;0.40;;;;;;;25.56;28.83;98108.72;4939276;28;20031;-57
2022/01/28 06:45:44;;;;;;;0.70;0.40;;;;;;;25.55;28.26;98104.34;4918695;29;20034;-59
2022/01/28 06:48:10;;;;;;;1.00;0.30;;;;;;;25.55;28.19;98101.72;4917187;28;20031;-59
2022/01/28 06:50:37;;;;;;;0.50;0.50;;;;;;;25.56;28.28;98098.22;4917148;29;20167;-57
2022/01/28 06:53:02;;;;;;;0.52;0.38;;;;;;;25.57;28.79;98102.56;4914378;29;20027;-59
2022/01/28 06:55:28;;;;;;;6.47;1.30;;;;;;;25.56;28.33;98097.38;4919497;29;20607;-59
2022/01/28 06:57:55;;;;;;;4.10;0.80;;;;;;;25.55;28.63;98106.97;4915047;28;20472;-60
2022/01/28 07:00:21;;;;;;;1.08;0.55;;;;;;;25.55;28.60;98106.13;4932097;28;20042;-58
2022/01/28 07:02:46;;;;;;;3.83;0.50;;;;;;;25.56;28.22;98103.47;4917814;28;20046;-57
2022/01/28 07:05:12;;;;;;;1.58;0.50;;;;;;;25.56;28.71;98103.47;4918439;29;20035;-60
2022/01/28 07:07:37;;;;;;;0.43;0.43;;;;;;;25.55;28.41;98111.38;4916329;29;20039;-57
2022/01/28 07:10:03;;;;;;;1.15;0.50;;;;;;;25.57;28.17;98118.34;4916088;29;20475;-60
2022/01/28 07:12:29;;;;;;;0.90;0.60;;;;;;;25.57;28.65;98126.19;4916209;29;20039;-58
2022/01/28 07:14:54;;;;;;;1.48;0.65;;;;;;;25.59;28.54;98122.66;4916281;28;20390;-59
2022/01/28 07:17:20;;;;;;;1.55;0.70;;;;;;;25.60;28.28;98124.38;4916909;28;20507;-59
2022/01/28 07:19:45;;;;;;;1.38;0.50;;;;;;;25.57;28.23;98120.09;4913859;28;20034;-59
2022/01/28 07:22:10;;;;;;;0.50;0.50;;;;;;;25.59;28.76;98127.91;4918777;29;20024;-59
2022/01/28 07:24:36;;;;;;;0.35;0.35;;;;;;;25.60;28.46;98119.13;4915457;28;20039;-59
2022/01/28 07:27:01;;;;;;;2.08;0.73;;;;;;;25.62;28.20;98130.44;4915946;29;20381;-59
2022/01/28 07:29:30;;;;;;;0.43;0.43;;;;;;;25.62;28.44;98117.31;4915873;29;20027;-59
2022/01/28 07:31:55;;;;;;;0.70;0.70;;;;;;;25.61;28.39;98103.34;4897092;29;20027;-57
2022/01/28 07:34:21;;;;;;;8.02;2.58;;;;;;;25.60;28.05;98106.88;4915088;28;20051;-60
2022/01/28 07:36:46;;;;;;;4.35;1.30;;;;;;;25.60;28.43;98119.13;4928214;28;20039;-57
2022/01/28 07:39:12;;;;;;;8.60;1.95;;;;;;;25.59;28.14;98127.91;4924538;29;20027;-60
2022/01/28 07:41:37;;;;;;;8.27;2.13;;;;;;;25.57;28.05;98131.44;4920165;29;20401;-60
2022/01/28 07:44:03;;;;;;;8.10;2.35;;;;;;;25.57;28.05;98120.97;4922110;29;20753;-59
2022/01/28 07:46:29;;;;;;;3.75;1.77;;;;;;;25.57;27.92;98131.44;4923183;28;20042;-61
2022/01/28 07:48:54;;;;;;;5.57;2.15;;;;;;;25.57;28.00;98141.94;4925917;29;20028;-61
2022/01/28 07:51:20;;;;;;;4.05;1.60;;;;;;;25.57;28.39;98136.69;4912821;28;20445;-61
2022/01/28 07:53:45;;;;;;;4.82;1.80;;;;;;;25.59;27.99;98143.66;4920465;29;20039;-61
2022/01/28 07:56:12;;;;;;;3.97;1.70;;;;;;;25.59;27.98;98138.41;4925457;29;20038;-62
2022/01/28 07:58:37;;;;;;;4.80;1.92;;;;;;;25.61;28.03;98120.84;4919572;29;20150;-62
2022/01/28 08:01:03;;;;;;;7.55;1.88;;;;;;;25.61;28.10;98132.22;4924101;29;20027;-59
2022/01/28 08:03:28;;;;;;;4.82;1.90;;;;;;;25.63;28.49;98124.28;4922297;28;20034;-61
2022/01/28 08:05:54;;;;;;;3.80;1.77;;;;;;;25.63;28.70;98137.41;4920304;29;20111;-62
2022/01/28 08:08:21;;;;;;;2.53;1.52;;;;;;;25.64;28.20;98141.75;4918688;29;20028;-61
2022/01/28 08:10:47;;;;;;;5.13;1.60;;;;;;;25.65;29.00;98132.97;4919729;28;20433;-62
2022/01/28 08:13:12;;;;;;;5.72;1.92;;;;;;;25.66;28.80;98132.06;4921483;29;20023;-61
2022/01/28 08:15:39;;;;;;;3.15;1.85;;;;;;;25.68;28.44;98132.88;4922512;29;20090;-61
2022/01/28 08:18:05;;;;;;;4.80;1.80;;;;;;;25.70;28.93;98146.78;4922316;28;20126;-62
2022/01/28 08:20:30;;;;;;;5.25;2.00;;;;;;;25.67;28.23;98141.66;4919348;28;20781;-60
2022/01/28 08:22:58;;;;;;;6.53;2.40;;;;;;;25.70;28.21;98160.78;4897134;29;20026;-59
2022/01/28 08:25:24;;;;;;;5.82;1.98;;;;;;;25.73;28.91;98156.38;4933716;28;20039;-64
2022/01/28 08:27:50;;;;;;;4.80;2.13;;;;;;;25.72;28.85;98155.50;4922928;29;20114;-60
2022/01/28 08:30:17;;;;;;;4.72;1.88;;;;;;;25.74;28.60;98163.34;4920093;29;20436;-62
2022/01/28 08:32:42;;;;;;;6.05;1.88;;;;;;;25.74;28.64;98161.56;4921338;29;20067;-61
2022/01/28 08:35:08;;;;;;;4.45;2.10;;;;;;;25.75;28.75;98163.28;4911546;29;20039;-62
2022/01/28 08:37:34;;;;;;;4.20;2.22;;;;;;;25.75;29.04;98167.66;4926915;29;20199;-60
2022/01/28 08:40:00;;;;;;;17.25;2.97;;;;;;;25.76;28.90;98167.63;4919684;29;21119;-62
2022/01/28 08:42:26;;;;;;;31.92;3.10;;;;;;;25.75;27.64;98167.66;4919624;28;20035;-62
2022/01/28 08:44:52;;;;;;;7.78;2.03;;;;;;;25.75;27.84;98171.16;4929031;28;20038;-62
2022/01/28 08:47:17;;;;;;;6.85;1.90;;;;;;;25.74;28.62;98182.56;4933249;28;20036;-61
2022/01/28 08:49:42;;;;;;;6.47;1.95;;;;;;;25.74;28.16;98177.31;4922499;29;20031;-61
2022/01/28 08:52:08;;;;;;;7.65;2.13;;;;;;;25.75;28.52;98181.66;4934758;28;20035;-61
2022/01/28 08:54:33;;;;;;;7.60;2.05;;;;;;;25.76;28.86;98188.63;4922859;29;20046;-60
2022/01/28 08:56:59;;;;;;;4.97;1.88;;;;;;;25.75;28.38;98186.94;4923722;29;21197;-61
2022/01/28 08:59:24;;;;;;;6.07;1.80;;;;;;;25.76;28.39;98193.00;4919214;28;20035;-61
2022/01/28 09:01:50;;;;;;;7.82;2.22;;;;;;;25.76;28.83;98204.38;4919711;29;20035;-61
2022/01/28 09:04:15;;;;;;;4.80;1.60;;;;;;;25.78;28.53;98206.97;4922761;29;20789;-61
2022/01/28 09:06:40;;;;;;;6.35;2.05;;;;;;;25.80;28.63;98200.75;4921339;29;20058;-61
2022/01/28 09:09:06;;;;;;;4.97;2.05;;;;;;;25.80;28.76;98206.03;4918857;28;20027;-61
2022/01/28 09:11:44;;;;;;;5.32;1.77;;;;;;;25.80;28.75;98198.13;4914478;29;21041;-62
2022/01/28 09:14:11;;;;;;;8.95;1.95;;;;;;;25.83;29.08;98205.06;4921683;29;20035;-59
2022/01/28 09:16:37;;;;;;;5.18;2.20;;;;;;;25.83;28.92;98194.56;4919596;28;20039;-59
2022/01/28 09:19:02;;;;;;;3.35;1.52;;;;;;;25.85;28.82;98202.38;4919438;29;20050;-63
2022/01/28 09:21:27;;;;;;;7.35;1.83;;;;;;;25.86;28.52;98193.59;4921620;28;20031;-60
2022/01/28 09:23:53;;;;;;;10.07;2.20;;;;;;;25.86;28.96;98193.59;4917817;28;20046;-60
2022/01/28 09:26:18;;;;;;;6.05;2.42;;;;;;;25.86;28.99;98198.84;4919745;29;20035;-57
2022/01/28 09:28:44;;;;;;;7.57;3.05;;;;;;;25.87;29.17;98205.81;4919139;29;20719;-60
2022/01/28 09:31:09;;;;;;;12.80;2.92;;;;;;;25.88;29.21;98202.28;4914310;28;20051;-60
2022/01/28 09:33:37;;;;;;;11.27;2.60;;;;;;;25.88;28.80;98200.53;4928268;28;21037;-59
2022/01/28 09:36:03;;;;;;;20.13;3.75;;;;;;;25.90;28.76;98200.47;4920109;28;20162;-58
2022/01/28 09:38:28;;;;;;;11.18;3.10;;;;;;;25.90;28.89;98200.47;4919149;29;20122;-59
2022/01/28 09:40:56;;;;;;;13.27;3.17;;;;;;;25.90;28.71;98206.56;4920744;28;20036;-57
2022/01/28 09:43:24;;;;;;;9.43;2.58;;;;;;;25.91;28.95;98203.06;4917804;29;20031;-64
2022/01/28 09:45:50;;;;;;;10.55;2.90;;;;;;;25.92;28.54;98214.41;4934397;28;20928;-64
2022/01/28 09:48:17;;;;;;;8.88;2.60;;;;;;;25.93;29.09;98226.66;4917371;28;20031;-59
2022/01/28 09:50:44;;;;;;;11.02;2.80;;;;;;;25.92;28.46;98230.16;4921430;28;20024;-60
2022/01/28 09:53:09;;;;;;;14.60;3.05;;;;;;;25.93;28.91;98219.63;4920273;28;20055;-61
2022/01/28 09:55:35;;;;;;;10.45;2.90;;;;;;;25.93;28.66;98226.66;4920616;29;20034;-60
2022/01/28 09:58:00;;;;;;;12.88;3.40;;;;;;;25.94;29.11;98236.25;4920907;29;20439;-60
2022/01/28 10:00:27;;;;;;;8.43;2.45;;;;;;;25.94;29.24;98228.38;4920864;28;20035;-59
2022/01/28 10:02:57;;;;;;;9.05;2.30;;;;;;;25.93;28.94;98230.13;4919583;29;20144;-57
2022/01/28 10:05:36;;;;;;;11.68;2.80;;;;;;;25.95;28.75;98244.09;4932301;28;20078;-60
2022/01/28 10:08:14;;;;;;;7.72;2.58;;;;;;;25.97;29.18;98246.63;4919596;29;20055;-60
2022/01/28 10:11:19;;;;;;;5.75;2.38;;;;;;;25.96;28.77;98248.41;4920161;28;20042;-60
2022/01/28 10:13:48;;;;;;;9.15;2.92;;;;;;;25.97;29.22;98249.25;4916912;28;20557;-61
2022/01/28 10:16:14;;;;;;;8.93;2.85;;;;;;;25.97;28.94;98244.00;4916991;28;20027;-62
2022/01/28 10:18:45;;;;;;;8.57;2.70;;;;;;;25.96;29.10;98248.41;4919045;29;20136;-63
2022/01/28 10:21:24;;;;;;;9.70;2.88;;;;;;;25.96;28.90;98242.28;4920047;28;20031;-63
2022/01/28 10:24:00;;;;;;;8.90;2.78;;;;;;;25.97;29.21;98238.75;4922489;29;20032;-63
2022/01/28 10:26:29;;;;;;;5.97;2.40;;;;;;;25.98;28.80;98235.25;4934201;28;20960;-61
2022/01/28 10:28:54;;;;;;;5.07;2.30;;;;;;;25.99;29.16;98223.81;4922220;29;20054;-61
2022/01/28 10:31:20;;;;;;;10.32;2.60;;;;;;;26.00;28.86;98222.91;4921916;28;20795;-61
2022/01/28 10:33:45;;;;;;;6.90;2.35;;;;;;;26.01;29.33;98219.38;4923158;29;20413;-61
2022/01/28 10:36:11;;;;;;;8.80;2.90;;;;;;;26.02;28.95;98220.25;4926965;29;20046;-62
2022/01/28 10:38:38;;;;;;;8.35;2.85;;;;;;;26.03;29.49;98216.69;4922184;29;20031;-63
2022/01/28 10:41:16;;;;;;;10.52;2.50;;;;;;;26.05;29.17;98215.75;4917551;28;20533;-63
2022/01/28 10:43:45;;;;;;;6.75;2.03;;;;;;;26.05;29.29;98207.84;4921433;29;20512;-62
2022/01/28 10:46:11;;;;;;;6.20;2.50;;;;;;;26.07;29.11;98208.69;4920945;28;20060;-62
2022/01/28 10:48:54;;;;;;;8.15;2.70;;;;;;;26.06;29.33;98204.34;4920397;29;20913;-62
2022/01/28 10:51:20;;;;;;;5.60;2.42;;;;;;;26.08;29.45;98204.28;4921500;29;20027;-62
2022/01/28 10:54:08;;;;;;;6.65;2.50;;;;;;;26.10;29.26;98202.47;4918998;28;20055;-62
2022/01/28 10:56:53;;;;;;;6.50;2.63;;;;;;;26.09;29.55;98198.97;4924971;29;20023;-62
2022/01/28 10:59:19;;;;;;;8.73;2.47;;;;;;;26.10;29.30;98200.69;4919136;28;20042;-61
2022/01/28 11:01:45;;;;;;;6.18;2.50;;;;;;;26.10;29.24;98198.06;4919214;28;20055;-62
2022/01/28 11:04:12;;;;;;;4.93;2.13;;;;;;;26.12;29.16;98194.53;4918438;28;20149;-61
2022/01/28 11:06:38;;;;;;;6.35;2.10;;;;;;;26.12;29.84;98202.44;4929532;28;20061;-59
2022/01/28 11:09:03;;;;;;;8.68;2.00;;;;;;;26.10;29.66;98205.94;4916208;29;20031;-60
2022/01/28 11:11:29;;;;;;;6.55;2.42;;;;;;;26.12;29.54;98205.06;4919520;29;20175;-62
2022/01/28 11:13:54;;;;;;;5.95;2.30;;;;;;;26.12;29.58;98205.06;4936832;28;20492;-60
2022/01/28 11:16:20;;;;;;;6.57;2.28;;;;;;;26.12;29.47;98208.53;4938032;28;20524;-62
2022/01/28 11:18:45;;;;;;;6.25;2.40;;;;;;;26.13;29.49;98212.00;4923177;29;20031;-60
2022/01/28 11:21:15;;;;;;;6.40;2.30;;;;;;;26.13;29.55;98218.16;4924671;28;20119;-60
2022/01/28 11:24:08;;;;;;;6.30;2.53;;;;;;;26.15;29.53;98215.44;4918541;29;20969;-57
2022/01/28 11:27:10;;;;;;;6.28;2.30;;;;;;;26.15;29.63;98215.44;4922079;28;20155;-59
2022/01/28 11:29:36;;;;;;;7.15;2.60;;;;;;;26.16;29.52;98211.94;4935375;28;20473;-60
2022/01/28 11:32:14;;;;;;;5.15;2.17;;;;;;;26.16;29.58;98212.78;4916753;28;20031;-60
2022/01/28 11:34:57;;;;;;;7.22;2.08;;;;;;;26.16;29.02;98202.25;4920269;29;20035;-61
2022/01/28 11:37:30;;;;;;;7.72;2.10;;;;;;;26.17;28.98;98203.13;4937932;28;20046;-58
2022/01/28 11:40:14;;;;;;;4.97;2.00;;;;;;;26.17;28.51;98203.13;4917271;28;20032;-61
2022/01/28 11:42:39;;;;;;;6.43;1.75;;;;;;;26.14;28.40;98203.22;4934513;28;20023;-60
2022/01/28 11:45:06;;;;;;;11.50;2.72;;;;;;;26.08;26.81;98205.13;4923750;29;21016;-67
2022/01/28 11:47:31;;;;;;;8.35;2.28;;;;;;;25.98;25.44;98198.47;4923313;29;20031;-61
2022/01/28 11:50:11;;;;;;;24.95;9.73;;;;;;;25.86;24.51;98204.09;4923773;29;20039;-63
2022/01/28 11:52:55;;;;;;;30.73;4.57;;;;;;;25.71;24.03;98206.31;4920008;28;20125;-66
2022/01/28 11:55:21;;;;;;;16.83;3.42;;;;;;;25.60;23.93;98208.38;4922015;28;20032;-59
2022/01/28 11:58:09;;;;;;;8.48;3.15;;;;;;;25.46;23.06;98207.00;4924683;28;20046;-60
2022/01/28 12:00:41;;;;;;;7.43;3.15;;;;;;;25.39;23.75;98210.69;4939619;28;20056;-60
2022/01/28 12:03:19;;;;;;;5.85;3.00;;;;;;;25.35;24.41;98203.84;4921654;28;20704;-60
2022/01/28 12:05:44;;;;;;;23.63;3.70;;;;;;;25.35;24.86;98209.09;4923588;29;20086;-60
2022/01/28 12:08:10;;;;;;;7.45;2.70;;;;;;;25.37;25.26;98207.25;4924077;29;20043;-62
2022/01/28 12:10:41;;;;;;;18.23;2.65;;;;;;;25.39;25.83;98206.31;4921695;28;20031;-58
2022/01/28 12:13:12;;;;;;;22.13;3.08;;;;;;;25.43;26.26;98196.56;4922511;28;20024;-58
2022/01/28 12:16:04;;;;;;;18.52;2.80;;;;;;;25.49;26.55;98206.03;4933008;28;20047;-60
2022/01/28 12:18:47;;;;;;;;;;;;;;;25.51;26.83;98193.75;4920346;28;20032;-60
2022/01/28 12:21:14;;;;;;;13.05;2.47;;;;;;;25.59;26.89;98197.00;4919494;29;20001;-60
2022/01/28 12:23:39;;;;;;;13.50;2.60;;;;;;;25.63;27.10;98189.91;4918506;28;20489;-59
2022/01/28 12:26:05;;;;;;;13.90;2.92;;;;;;;25.66;27.55;98203.81;4920396;28;20046;-60
2022/01/28 12:28:30;;;;;;;15.73;2.40;;;;;;;25.72;28.86;98197.50;4919015;28;20495;-58
2022/01/28 12:30:59;;;;;;;12.70;2.90;;;;;;;25.82;29.74;98187.59;4924382;28;20041;-59
2022/01/28 12:33:26;;;;;;;14.32;2.53;;;;;;;25.87;28.94;98179.56;4920629;28;20035;-60
2022/01/28 12:35:53;;;;;;;20.67;2.65;;;;;;;25.91;28.47;98181.19;4921855;29;20034;-59
2022/01/28 12:38:24;;;;;;;16.58;2.95;;;;;;;25.96;28.14;98174.88;4919118;29;20038;-60
2022/01/28 12:40:52;;;;;;;13.83;2.20;;;;;;;25.95;27.54;98161.78;4923103;28;20066;-60
2022/01/28 12:43:19;;;;;;;5.97;2.08;;;;;;;25.98;27.75;98166.94;4920443;28;20839;-63
2022/01/28 12:46:04;;;;;;;6.55;2.38;;;;;;;25.96;27.49;98174.88;4917251;28;20035;-62
2022/01/28 12:48:29;;;;;;;7.13;2.20;;;;;;;25.95;27.54;98174.91;4929076;28;20030;-61
2022/01/28 12:50:55;;;;;;;7.72;2.60;;;;;;;25.92;27.47;98167.13;4925031;28;20111;-62
2022/01/28 12:53:35;;;;;;;14.63;3.42;;;;;;;25.87;26.00;98164.66;4918710;29;20035;-63
2022/01/28 12:56:01;;;;;;;15.73;3.65;;;;;;;25.78;25.84;98162.34;4921235;29;20150;-59